sensor_id;sensor_type;location;lat;lon;timestamp;P1;durP1;ratioP1;P2;durP2;ratioP2
5428;SDS011;2737;52.386;9.980;2024-01-11T00:00:45;31.90;;;12.80;;
5428;SDS011;2737;52.386;9.980;2024-01-11T00:03:13;32.03;;;12.43;;
5428;SDS011;2737;52.386;9.980;2024-01-11T00:05:40;29.87;;;11.33;;
5428;SDS011;2737;52.386;9.980;2024-01-11T00:08:08;28.57;;;12.07;;
5428;SDS011;2737;52.386;9.980;2024-01-11T00:10:35;33.57;;;12.27;;
5428;SDS011;2737;52.386;9.980;2024-01-11T00:13:02;26.77;;;12.40;;
5428;SDS011;2737;52.386;9.980;2024-01-11T00:15:30;26.77;;;11.83;;
5428;SDS011;2737;52.386;9.980;2024-01-11T00:17:57;30.23;;;12.30;;
5428;SDS011;2737;52.386;9.980;2024-01-11T00:20:25;29.00;;;11.90;;
5428;SDS011;2737;52.386;9.980;2024-01-11T00:22:52;31.30;;;12.20;;
5428;SDS011;2737;52.386;9.980;2024-01-11T00:25:19;27.37;;;12.40;;
5428;SDS011;2737;52.386;9.980;2024-01-11T00:27:47;31.47;;;13.20;;
5428;SDS011;2737;52.386;9.980;2024-01-11T00:30:14;32.80;;;12.40;;
5428;SDS011;2737;52.386;9.980;2024-01-11T00:32:41;31.27;;;12.53;;
5428;SDS011;2737;52.386;9.980;2024-01-11T00:35:08;34.00;;;12.60;;
5428;SDS011;2737;52.386;9.980;2024-01-11T00:37:36;29.20;;;11.83;;
5428;SDS011;2737;52.386;9.980;2024-01-11T00:40:04;25.20;;;11.47;;
5428;SDS011;2737;52.386;9.980;2024-01-11T00:42:32;25.27;;;12.33;;
5428;SDS011;2737;52.386;9.980;2024-01-11T00:44:59;30.17;;;11.50;;
5428;SDS011;2737;52.386;9.980;2024-01-11T00:47:27;25.30;;;10.30;;
5428;SDS011;2737;52.386;9.980;2024-01-11T00:49:54;28.80;;;11.13;;
5428;SDS011;2737;52.386;9.980;2024-01-11T00:52:21;31.50;;;11.53;;
5428;SDS011;2737;52.386;9.980;2024-01-11T00:54:49;26.70;;;11.67;;
5428;SDS011;2737;52.386;9.980;2024-01-11T00:57:16;34.10;;;13.00;;
5428;SDS011;2737;52.386;9.980;2024-01-11T00:59:43;27.63;;;11.07;;
5428;SDS011;2737;52.386;9.980;2024-01-11T01:02:10;26.47;;;12.57;;
5428;SDS011;2737;52.386;9.980;2024-01-11T01:04:37;30.90;;;11.93;;
5428;SDS011;2737;52.386;9.980;2024-01-11T01:07:05;28.17;;;10.80;;
5428;SDS011;2737;52.386;9.980;2024-01-11T01:09:32;27.53;;;12.60;;
5428;SDS011;2737;52.386;9.980;2024-01-11T01:12:01;27.00;;;11.00;;
5428;SDS011;2737;52.386;9.980;2024-01-11T01:14:28;30.93;;;12.00;;
5428;SDS011;2737;52.386;9.980;2024-01-11T01:16:55;27.70;;;10.47;;
5428;SDS011;2737;52.386;9.980;2024-01-11T01:19:22;34.80;;;11.53;;
5428;SDS011;2737;52.386;9.980;2024-01-11T01:21:49;32.43;;;11.20;;
5428;SDS011;2737;52.386;9.980;2024-01-11T01:24:16;27.97;;;11.50;;
5428;SDS011;2737;52.386;9.980;2024-01-11T01:26:43;32.40;;;11.00;;
5428;SDS011;2737;52.386;9.980;2024-01-11T01:29:12;26.77;;;11.23;;
5428;SDS011;2737;52.386;9.980;2024-01-11T01:31:40;25.90;;;10.90;;
5428;SDS011;2737;52.386;9.980;2024-01-11T01:34:07;30.33;;;11.10;;
5428;SDS011;2737;52.386;9.980;2024-01-11T01:36:34;24.00;;;10.00;;
5428;SDS011;2737;52.386;9.980;2024-01-11T01:39:01;29.80;;;10.70;;
5428;SDS011;2737;52.386;9.980;2024-01-11T01:41:29;24.00;;;9.87;;
5428;SDS011;2737;52.386;9.980;2024-01-11T01:43:56;27.37;;;10.97;;
5428;SDS011;2737;52.386;9.980;2024-01-11T01:46:24;25.87;;;10.70;;
5428;SDS011;2737;52.386;9.980;2024-01-11T01:48:52;24.33;;;10.47;;
5428;SDS011;2737;52.386;9.980;2024-01-11T01:51:21;30.33;;;11.47;;
5428;SDS011;2737;52.386;9.980;2024-01-11T01:53:50;28.80;;;10.90;;
5428;SDS011;2737;52.386;9.980;2024-01-11T01:56:19;27.60;;;10.43;;
5428;SDS011;2737;52.386;9.980;2024-01-11T01:58:47;27.70;;;10.73;;
5428;SDS011;2737;52.386;9.980;2024-01-11T02:01:17;27.93;;;10.10;;
5428;SDS011;2737;52.386;9.980;2024-01-11T02:03:47;23.10;;;10.50;;
5428;SDS011;2737;52.386;9.980;2024-01-11T02:06:17;26.23;;;11.07;;
5428;SDS011;2737;52.386;9.980;2024-01-11T02:08:47;31.03;;;10.50;;
5428;SDS011;2737;52.386;9.980;2024-01-11T02:11:17;25.63;;;9.43;;
5428;SDS011;2737;52.386;9.980;2024-01-11T02:13:46;24.10;;;10.17;;
5428;SDS011;2737;52.386;9.980;2024-01-11T02:16:13;31.83;;;10.73;;
5428;SDS011;2737;52.386;9.980;2024-01-11T02:18:40;28.23;;;11.07;;
5428;SDS011;2737;52.386;9.980;2024-01-11T02:21:09;22.67;;;10.10;;
5428;SDS011;2737;52.386;9.980;2024-01-11T02:23:42;27.30;;;10.57;;
5428;SDS011;2737;52.386;9.980;2024-01-11T02:26:13;24.43;;;10.90;;
5428;SDS011;2737;52.386;9.980;2024-01-11T02:28:43;22.10;;;9.07;;
5428;SDS011;2737;52.386;9.980;2024-01-11T02:31:11;31.33;;;10.40;;
5428;SDS011;2737;52.386;9.980;2024-01-11T02:33:39;20.27;;;9.80;;
5428;SDS011;2737;52.386;9.980;2024-01-11T02:36:06;28.93;;;9.77;;
5428;SDS011;2737;52.386;9.980;2024-01-11T02:38:33;27.43;;;10.20;;
5428;SDS011;2737;52.386;9.980;2024-01-11T02:41:01;25.83;;;9.37;;
5428;SDS011;2737;52.386;9.980;2024-01-11T02:43:31;25.93;;;10.37;;
5428;SDS011;2737;52.386;9.980;2024-01-11T02:45:58;27.50;;;10.43;;
5428;SDS011;2737;52.386;9.980;2024-01-11T02:48:27;29.97;;;11.57;;
5428;SDS011;2737;52.386;9.980;2024-01-11T02:50:55;25.83;;;10.60;;
5428;SDS011;2737;52.386;9.980;2024-01-11T02:53:22;24.23;;;10.37;;
5428;SDS011;2737;52.386;9.980;2024-01-11T02:55:49;27.67;;;11.50;;
5428;SDS011;2737;52.386;9.980;2024-01-11T02:58:16;23.47;;;10.47;;
5428;SDS011;2737;52.386;9.980;2024-01-11T03:00:45;35.10;;;10.13;;
5428;SDS011;2737;52.386;9.980;2024-01-11T03:03:12;34.77;;;11.50;;
5428;SDS011;2737;52.386;9.980;2024-01-11T03:05:39;28.90;;;10.97;;
5428;SDS011;2737;52.386;9.980;2024-01-11T03:08:06;34.23;;;12.60;;
5428;SDS011;2737;52.386;9.980;2024-01-11T03:10:33;33.23;;;10.30;;
5428;SDS011;2737;52.386;9.980;2024-01-11T03:13:03;25.77;;;11.20;;
5428;SDS011;2737;52.386;9.980;2024-01-11T03:15:31;25.70;;;10.37;;
5428;SDS011;2737;52.386;9.980;2024-01-11T03:17:59;32.60;;;11.20;;
5428;SDS011;2737;52.386;9.980;2024-01-11T03:20:26;25.27;;;10.37;;
5428;SDS011;2737;52.386;9.980;2024-01-11T03:22:54;24.43;;;8.87;;
5428;SDS011;2737;52.386;9.980;2024-01-11T03:25:21;29.13;;;11.30;;
5428;SDS011;2737;52.386;9.980;2024-01-11T03:27:48;28.70;;;11.43;;
5428;SDS011;2737;52.386;9.980;2024-01-11T03:30:15;32.60;;;12.13;;
5428;SDS011;2737;52.386;9.980;2024-01-11T03:32:42;31.83;;;12.10;;
5428;SDS011;2737;52.386;9.980;2024-01-11T03:35:11;24.83;;;10.80;;
5428;SDS011;2737;52.386;9.980;2024-01-11T03:37:38;33.67;;;11.60;;
5428;SDS011;2737;52.386;9.980;2024-01-11T03:40:05;24.13;;;10.37;;
5428;SDS011;2737;52.386;9.980;2024-01-11T03:42:33;31.40;;;12.53;;
5428;SDS011;2737;52.386;9.980;2024-01-11T03:45:00;26.30;;;10.67;;
5428;SDS011;2737;52.386;9.980;2024-01-11T03:47:28;31.47;;;10.37;;
5428;SDS011;2737;52.386;9.980;2024-01-11T03:49:55;27.07;;;10.67;;
5428;SDS011;2737;52.386;9.980;2024-01-11T03:52:23;26.20;;;10.77;;
5428;SDS011;2737;52.386;9.980;2024-01-11T03:54:50;28.97;;;10.90;;
5428;SDS011;2737;52.386;9.980;2024-01-11T03:57:17;28.83;;;10.13;;
5428;SDS011;2737;52.386;9.980;2024-01-11T03:59:45;24.50;;;9.73;;
5428;SDS011;2737;52.386;9.980;2024-01-11T04:02:12;27.57;;;11.07;;
5428;SDS011;2737;52.386;9.980;2024-01-11T04:04:39;27.90;;;10.80;;
5428;SDS011;2737;52.386;9.980;2024-01-11T04:07:07;25.27;;;8.70;;
5428;SDS011;2737;52.386;9.980;2024-01-11T04:09:38;25.80;;;10.50;;
5428;SDS011;2737;52.386;9.980;2024-01-11T04:12:05;30.10;;;11.10;;
5428;SDS011;2737;52.386;9.980;2024-01-11T04:14:33;27.73;;;10.77;;
5428;SDS011;2737;52.386;9.980;2024-01-11T04:17:00;27.90;;;10.70;;
5428;SDS011;2737;52.386;9.980;2024-01-11T04:19:27;23.77;;;10.10;;
5428;SDS011;2737;52.386;9.980;2024-01-11T04:21:54;26.23;;;9.93;;
5428;SDS011;2737;52.386;9.980;2024-01-11T04:24:21;19.80;;;9.00;;
5428;SDS011;2737;52.386;9.980;2024-01-11T04:26:49;26.13;;;10.73;;
5428;SDS011;2737;52.386;9.980;2024-01-11T04:29:16;30.83;;;10.73;;
5428;SDS011;2737;52.386;9.980;2024-01-11T04:31:43;24.73;;;10.87;;
5428;SDS011;2737;52.386;9.980;2024-01-11T04:34:10;26.60;;;9.77;;
5428;SDS011;2737;52.386;9.980;2024-01-11T04:36:37;22.03;;;8.00;;
5428;SDS011;2737;52.386;9.980;2024-01-11T04:39:04;25.33;;;9.90;;
5428;SDS011;2737;52.386;9.980;2024-01-11T04:41:33;22.27;;;9.53;;
5428;SDS011;2737;52.386;9.980;2024-01-11T04:44:03;25.40;;;9.43;;
5428;SDS011;2737;52.386;9.980;2024-01-11T04:46:30;21.97;;;9.50;;
5428;SDS011;2737;52.386;9.980;2024-01-11T04:48:57;29.93;;;10.23;;
5428;SDS011;2737;52.386;9.980;2024-01-11T04:51:24;26.97;;;10.50;;
5428;SDS011;2737;52.386;9.980;2024-01-11T04:53:51;24.60;;;9.03;;
5428;SDS011;2737;52.386;9.980;2024-01-11T04:56:18;31.03;;;10.83;;
5428;SDS011;2737;52.386;9.980;2024-01-11T04:58:45;25.93;;;10.73;;
5428;SDS011;2737;52.386;9.980;2024-01-11T05:01:14;27.33;;;9.93;;
5428;SDS011;2737;52.386;9.980;2024-01-11T05:03:42;32.73;;;10.53;;
5428;SDS011;2737;52.386;9.980;2024-01-11T05:06:14;22.73;;;9.57;;
5428;SDS011;2737;52.386;9.980;2024-01-11T05:08:41;29.70;;;11.53;;
5428;SDS011;2737;52.386;9.980;2024-01-11T05:11:14;31.60;;;11.57;;
5428;SDS011;2737;52.386;9.980;2024-01-11T05:13:41;26.93;;;10.30;;
5428;SDS011;2737;52.386;9.980;2024-01-11T05:16:17;29.37;;;10.50;;
5428;SDS011;2737;52.386;9.980;2024-01-11T05:18:45;30.80;;;12.53;;
5428;SDS011;2737;52.386;9.980;2024-01-11T05:21:12;26.33;;;9.57;;
5428;SDS011;2737;52.386;9.980;2024-01-11T05:23:39;27.33;;;10.37;;
5428;SDS011;2737;52.386;9.980;2024-01-11T05:26:07;27.70;;;10.40;;
5428;SDS011;2737;52.386;9.980;2024-01-11T05:28:34;25.47;;;10.97;;
5428;SDS011;2737;52.386;9.980;2024-01-11T05:31:01;32.37;;;11.27;;
5428;SDS011;2737;52.386;9.980;2024-01-11T05:33:30;31.23;;;10.20;;
5428;SDS011;2737;52.386;9.980;2024-01-11T05:35:57;29.33;;;10.57;;
5428;SDS011;2737;52.386;9.980;2024-01-11T05:38:24;35.10;;;11.73;;
5428;SDS011;2737;52.386;9.980;2024-01-11T05:40:51;25.47;;;9.97;;
5428;SDS011;2737;52.386;9.980;2024-01-11T05:43:18;35.00;;;12.13;;
5428;SDS011;2737;52.386;9.980;2024-01-11T05:45:45;29.70;;;10.50;;
5428;SDS011;2737;52.386;9.980;2024-01-11T05:48:12;26.53;;;8.73;;
5428;SDS011;2737;52.386;9.980;2024-01-11T05:50:40;29.07;;;11.27;;
5428;SDS011;2737;52.386;9.980;2024-01-11T05:53:07;24.07;;;9.57;;
5428;SDS011;2737;52.386;9.980;2024-01-11T05:55:34;29.57;;;10.53;;
5428;SDS011;2737;52.386;9.980;2024-01-11T05:58:02;27.07;;;10.33;;
5428;SDS011;2737;52.386;9.980;2024-01-11T06:00:29;33.77;;;11.83;;
5428;SDS011;2737;52.386;9.980;2024-01-11T06:02:56;33.67;;;12.37;;
5428;SDS011;2737;52.386;9.980;2024-01-11T06:05:23;43.53;;;12.60;;
5428;SDS011;2737;52.386;9.980;2024-01-11T06:07:51;35.47;;;11.90;;
5428;SDS011;2737;52.386;9.980;2024-01-11T06:10:19;40.07;;;13.83;;
5428;SDS011;2737;52.386;9.980;2024-01-11T06:12:46;38.80;;;14.10;;
5428;SDS011;2737;52.386;9.980;2024-01-11T06:15:13;47.50;;;14.80;;
5428;SDS011;2737;52.386;9.980;2024-01-11T06:17:40;34.07;;;12.07;;
5428;SDS011;2737;52.386;9.980;2024-01-11T06:20:07;34.90;;;12.70;;
5428;SDS011;2737;52.386;9.980;2024-01-11T06:22:35;33.23;;;12.57;;
5428;SDS011;2737;52.386;9.980;2024-01-11T06:25:04;23.57;;;9.13;;
5428;SDS011;2737;52.386;9.980;2024-01-11T06:27:31;31.20;;;11.27;;
5428;SDS011;2737;52.386;9.980;2024-01-11T06:29:58;34.03;;;10.00;;
5428;SDS011;2737;52.386;9.980;2024-01-11T06:32:25;26.33;;;11.03;;
5428;SDS011;2737;52.386;9.980;2024-01-11T06:34:52;32.53;;;10.97;;
5428;SDS011;2737;52.386;9.980;2024-01-11T06:37:19;30.17;;;10.33;;
5428;SDS011;2737;52.386;9.980;2024-01-11T06:39:47;29.20;;;11.40;;
5428;SDS011;2737;52.386;9.980;2024-01-11T06:42:16;26.00;;;11.07;;
5428;SDS011;2737;52.386;9.980;2024-01-11T06:44:43;28.03;;;10.80;;
5428;SDS011;2737;52.386;9.980;2024-01-11T06:47:10;30.23;;;13.17;;
5428;SDS011;2737;52.386;9.980;2024-01-11T06:49:38;29.07;;;10.97;;
5428;SDS011;2737;52.386;9.980;2024-01-11T06:52:05;27.57;;;10.80;;
5428;SDS011;2737;52.386;9.980;2024-01-11T06:54:32;24.90;;;9.63;;
5428;SDS011;2737;52.386;9.980;2024-01-11T06:57:00;37.33;;;11.87;;
5428;SDS011;2737;52.386;9.980;2024-01-11T06:59:29;31.13;;;11.20;;
5428;SDS011;2737;52.386;9.980;2024-01-11T07:01:56;30.90;;;10.83;;
5428;SDS011;2737;52.386;9.980;2024-01-11T07:04:23;27.13;;;10.53;;
5428;SDS011;2737;52.386;9.980;2024-01-11T07:06:50;32.70;;;11.53;;
5428;SDS011;2737;52.386;9.980;2024-01-11T07:09:17;29.97;;;10.90;;
5428;SDS011;2737;52.386;9.980;2024-01-11T07:11:44;27.97;;;9.60;;
5428;SDS011;2737;52.386;9.980;2024-01-11T07:14:11;31.67;;;11.00;;
5428;SDS011;2737;52.386;9.980;2024-01-11T07:16:39;30.93;;;11.23;;
5428;SDS011;2737;52.386;9.980;2024-01-11T07:19:06;34.83;;;11.17;;
5428;SDS011;2737;52.386;9.980;2024-01-11T07:21:33;29.40;;;10.23;;
5428;SDS011;2737;52.386;9.980;2024-01-11T07:24:01;28.07;;;9.77;;
5428;SDS011;2737;52.386;9.980;2024-01-11T07:26:28;31.73;;;12.00;;
5428;SDS011;2737;52.386;9.980;2024-01-11T07:28:55;27.40;;;11.33;;
5428;SDS011;2737;52.386;9.980;2024-01-11T07:31:22;30.93;;;10.33;;
5428;SDS011;2737;52.386;9.980;2024-01-11T07:33:50;32.53;;;11.73;;
5428;SDS011;2737;52.386;9.980;2024-01-11T07:36:17;29.77;;;11.67;;
5428;SDS011;2737;52.386;9.980;2024-01-11T07:38:44;32.53;;;11.37;;
5428;SDS011;2737;52.386;9.980;2024-01-11T07:41:11;37.87;;;11.33;;
5428;SDS011;2737;52.386;9.980;2024-01-11T07:43:39;29.40;;;12.73;;
5428;SDS011;2737;52.386;9.980;2024-01-11T07:46:06;32.43;;;11.57;;
5428;SDS011;2737;52.386;9.980;2024-01-11T07:48:33;35.77;;;12.27;;
5428;SDS011;2737;52.386;9.980;2024-01-11T07:51:02;36.77;;;11.07;;
5428;SDS011;2737;52.386;9.980;2024-01-11T07:53:29;32.77;;;11.33;;
5428;SDS011;2737;52.386;9.980;2024-01-11T07:55:57;30.43;;;10.90;;
5428;SDS011;2737;52.386;9.980;2024-01-11T07:58:24;23.53;;;9.87;;
5428;SDS011;2737;52.386;9.980;2024-01-11T08:00:51;28.60;;;11.20;;
5428;SDS011;2737;52.386;9.980;2024-01-11T08:03:19;28.50;;;10.87;;
5428;SDS011;2737;52.386;9.980;2024-01-11T08:05:46;34.67;;;10.83;;
5428;SDS011;2737;52.386;9.980;2024-01-11T08:08:16;27.50;;;11.27;;
5428;SDS011;2737;52.386;9.980;2024-01-11T08:10:43;33.33;;;12.17;;
5428;SDS011;2737;52.386;9.980;2024-01-11T08:13:10;31.87;;;10.67;;
5428;SDS011;2737;52.386;9.980;2024-01-11T08:15:38;37.00;;;13.47;;
5428;SDS011;2737;52.386;9.980;2024-01-11T08:18:05;34.30;;;12.40;;
5428;SDS011;2737;52.386;9.980;2024-01-11T08:20:32;33.03;;;12.30;;
5428;SDS011;2737;52.386;9.980;2024-01-11T08:22:59;29.10;;;11.40;;
5428;SDS011;2737;52.386;9.980;2024-01-11T08:25:27;27.63;;;11.67;;
5428;SDS011;2737;52.386;9.980;2024-01-11T08:27:54;30.60;;;12.10;;
5428;SDS011;2737;52.386;9.980;2024-01-11T08:30:22;31.00;;;11.50;;
5428;SDS011;2737;52.386;9.980;2024-01-11T08:32:49;31.57;;;12.97;;
5428;SDS011;2737;52.386;9.980;2024-01-11T08:35:16;33.73;;;10.97;;
5428;SDS011;2737;52.386;9.980;2024-01-11T08:37:43;31.40;;;12.50;;
5428;SDS011;2737;52.386;9.980;2024-01-11T08:40:10;29.53;;;11.70;;
5428;SDS011;2737;52.386;9.980;2024-01-11T08:42:39;31.50;;;13.10;;
5428;SDS011;2737;52.386;9.980;2024-01-11T08:45:06;31.70;;;12.27;;
5428;SDS011;2737;52.386;9.980;2024-01-11T08:47:33;37.67;;;12.60;;
5428;SDS011;2737;52.386;9.980;2024-01-11T08:50:01;34.50;;;13.00;;
5428;SDS011;2737;52.386;9.980;2024-01-11T08:52:31;32.17;;;12.20;;
5428;SDS011;2737;52.386;9.980;2024-01-11T08:54:58;31.60;;;12.50;;
5428;SDS011;2737;52.386;9.980;2024-01-11T08:57:25;29.73;;;12.50;;
5428;SDS011;2737;52.386;9.980;2024-01-11T08:59:54;37.57;;;12.97;;
5428;SDS011;2737;52.386;9.980;2024-01-11T09:02:21;33.30;;;13.13;;
5428;SDS011;2737;52.386;9.980;2024-01-11T09:04:48;35.83;;;12.33;;
5428;SDS011;2737;52.386;9.980;2024-01-11T09:07:15;30.93;;;12.57;;
5428;SDS011;2737;52.386;9.980;2024-01-11T09:09:42;33.40;;;11.80;;
5428;SDS011;2737;52.386;9.980;2024-01-11T09:12:10;38.53;;;14.87;;
5428;SDS011;2737;52.386;9.980;2024-01-11T09:14:37;31.87;;;13.33;;
5428;SDS011;2737;52.386;9.980;2024-01-11T09:17:07;33.53;;;12.60;;
5428;SDS011;2737;52.386;9.980;2024-01-11T09:19:34;31.67;;;12.67;;
5428;SDS011;2737;52.386;9.980;2024-01-11T09:22:02;34.17;;;11.60;;
5428;SDS011;2737;52.386;9.980;2024-01-11T09:24:29;38.40;;;13.20;;
5428;SDS011;2737;52.386;9.980;2024-01-11T09:26:56;38.17;;;13.83;;
5428;SDS011;2737;52.386;9.980;2024-01-11T09:29:23;42.40;;;13.50;;
5428;SDS011;2737;52.386;9.980;2024-01-11T09:31:51;39.10;;;12.87;;
5428;SDS011;2737;52.386;9.980;2024-01-11T09:34:19;35.60;;;12.57;;
5428;SDS011;2737;52.386;9.980;2024-01-11T09:36:47;33.87;;;12.57;;
5428;SDS011;2737;52.386;9.980;2024-01-11T09:39:14;37.60;;;13.33;;
5428;SDS011;2737;52.386;9.980;2024-01-11T09:41:42;37.63;;;11.90;;
5428;SDS011;2737;52.386;9.980;2024-01-11T09:44:16;32.80;;;11.30;;
5428;SDS011;2737;52.386;9.980;2024-01-11T09:46:44;35.30;;;13.10;;
5428;SDS011;2737;52.386;9.980;2024-01-11T09:49:12;39.63;;;12.60;;
5428;SDS011;2737;52.386;9.980;2024-01-11T09:51:43;36.93;;;13.27;;
5428;SDS011;2737;52.386;9.980;2024-01-11T09:54:13;35.33;;;13.07;;
5428;SDS011;2737;52.386;9.980;2024-01-11T09:56:42;32.97;;;12.33;;
5428;SDS011;2737;52.386;9.980;2024-01-11T09:59:10;30.93;;;13.27;;
5428;SDS011;2737;52.386;9.980;2024-01-11T10:01:38;33.20;;;13.37;;
5428;SDS011;2737;52.386;9.980;2024-01-11T10:04:05;34.50;;;13.10;;
5428;SDS011;2737;52.386;9.980;2024-01-11T10:06:32;42.67;;;13.97;;
5428;SDS011;2737;52.386;9.980;2024-01-11T10:09:06;43.13;;;14.00;;
5428;SDS011;2737;52.386;9.980;2024-01-11T10:11:33;32.97;;;12.70;;
5428;SDS011;2737;52.386;9.980;2024-01-11T10:14:00;46.00;;;14.23;;
5428;SDS011;2737;52.386;9.980;2024-01-11T10:16:28;35.27;;;13.17;;
5428;SDS011;2737;52.386;9.980;2024-01-11T10:18:55;43.33;;;14.73;;
5428;SDS011;2737;52.386;9.980;2024-01-11T10:21:23;38.70;;;14.47;;
5428;SDS011;2737;52.386;9.980;2024-01-11T10:23:50;35.97;;;13.17;;
5428;SDS011;2737;52.386;9.980;2024-01-11T10:26:18;51.53;;;14.13;;
5428;SDS011;2737;52.386;9.980;2024-01-11T10:28:46;40.70;;;14.60;;
5428;SDS011;2737;52.386;9.980;2024-01-11T10:31:13;41.93;;;14.83;;
5428;SDS011;2737;52.386;9.980;2024-01-11T10:33:41;48.03;;;15.97;;
5428;SDS011;2737;52.386;9.980;2024-01-11T10:36:08;53.97;;;14.93;;
5428;SDS011;2737;52.386;9.980;2024-01-11T10:38:38;57.37;;;15.13;;
5428;SDS011;2737;52.386;9.980;2024-01-11T10:41:06;41.00;;;14.47;;
5428;SDS011;2737;52.386;9.980;2024-01-11T10:43:36;49.60;;;15.80;;
5428;SDS011;2737;52.386;9.980;2024-01-11T10:46:04;57.40;;;16.60;;
5428;SDS011;2737;52.386;9.980;2024-01-11T10:48:33;51.00;;;16.30;;
5428;SDS011;2737;52.386;9.980;2024-01-11T10:51:04;54.03;;;15.03;;
5428;SDS011;2737;52.386;9.980;2024-01-11T10:53:36;50.80;;;16.57;;
5428;SDS011;2737;52.386;9.980;2024-01-11T10:56:09;50.63;;;15.30;;
5428;SDS011;2737;52.386;9.980;2024-01-11T10:58:40;48.87;;;15.90;;
5428;SDS011;2737;52.386;9.980;2024-01-11T11:01:07;54.77;;;15.50;;
5428;SDS011;2737;52.386;9.980;2024-01-11T11:03:35;43.13;;;14.33;;
5428;SDS011;2737;52.386;9.980;2024-01-11T11:06:04;47.70;;;16.30;;
5428;SDS011;2737;52.386;9.980;2024-01-11T11:08:33;50.53;;;15.93;;
5428;SDS011;2737;52.386;9.980;2024-01-11T11:11:02;43.97;;;15.30;;
5428;SDS011;2737;52.386;9.980;2024-01-11T11:13:31;52.20;;;16.63;;
5428;SDS011;2737;52.386;9.980;2024-01-11T11:16:01;38.07;;;14.00;;
5428;SDS011;2737;52.386;9.980;2024-01-11T11:18:29;43.77;;;14.40;;
5428;SDS011;2737;52.386;9.980;2024-01-11T11:20:57;53.33;;;14.67;;
5428;SDS011;2737;52.386;9.980;2024-01-11T11:23:24;45.13;;;12.70;;
5428;SDS011;2737;52.386;9.980;2024-01-11T11:25:53;39.10;;;12.57;;
5428;SDS011;2737;52.386;9.980;2024-01-11T11:28:22;39.00;;;13.60;;
5428;SDS011;2737;52.386;9.980;2024-01-11T11:30:49;45.53;;;14.67;;
5428;SDS011;2737;52.386;9.980;2024-01-11T11:33:20;39.13;;;12.43;;
5428;SDS011;2737;52.386;9.980;2024-01-11T11:35:52;49.73;;;12.53;;
5428;SDS011;2737;52.386;9.980;2024-01-11T11:38:21;36.97;;;12.43;;
5428;SDS011;2737;52.386;9.980;2024-01-11T11:40:50;41.93;;;14.40;;
5428;SDS011;2737;52.386;9.980;2024-01-11T11:43:19;58.37;;;19.57;;
5428;SDS011;2737;52.386;9.980;2024-01-11T11:45:47;40.50;;;14.07;;
5428;SDS011;2737;52.386;9.980;2024-01-11T11:51:17;47.13;;;15.97;;
5428;SDS011;2737;52.386;9.980;2024-01-11T11:53:46;58.23;;;16.73;;
5428;SDS011;2737;52.386;9.980;2024-01-11T11:56:14;45.33;;;15.40;;
5428;SDS011;2737;52.386;9.980;2024-01-11T11:58:42;41.03;;;13.83;;
5428;SDS011;2737;52.386;9.980;2024-01-11T12:01:11;48.97;;;14.10;;
5428;SDS011;2737;52.386;9.980;2024-01-11T12:03:42;37.50;;;14.40;;
5428;SDS011;2737;52.386;9.980;2024-01-11T12:06:15;41.30;;;13.50;;
5428;SDS011;2737;52.386;9.980;2024-01-11T12:08:44;44.03;;;11.77;;
5428;SDS011;2737;52.386;9.980;2024-01-11T12:11:16;49.40;;;14.20;;
5428;SDS011;2737;52.386;9.980;2024-01-11T12:13:45;35.90;;;13.40;;
5428;SDS011;2737;52.386;9.980;2024-01-11T12:16:12;34.23;;;12.60;;
5428;SDS011;2737;52.386;9.980;2024-01-11T12:18:39;42.60;;;14.50;;
5428;SDS011;2737;52.386;9.980;2024-01-11T12:21:07;35.83;;;13.63;;
5428;SDS011;2737;52.386;9.980;2024-01-11T12:23:36;40.13;;;12.83;;
5428;SDS011;2737;52.386;9.980;2024-01-11T12:26:06;46.53;;;15.10;;
5428;SDS011;2737;52.386;9.980;2024-01-11T12:28:37;43.73;;;14.20;;
5428;SDS011;2737;52.386;9.980;2024-01-11T12:31:06;45.87;;;15.13;;
5428;SDS011;2737;52.386;9.980;2024-01-11T12:33:33;42.37;;;14.33;;
5428;SDS011;2737;52.386;9.980;2024-01-11T12:36:03;52.50;;;16.80;;
5428;SDS011;2737;52.386;9.980;2024-01-11T12:38:32;44.60;;;15.17;;
5428;SDS011;2737;52.386;9.980;2024-01-11T12:41:01;56.17;;;17.17;;
5428;SDS011;2737;52.386;9.980;2024-01-11T12:43:28;55.00;;;16.30;;
5428;SDS011;2737;52.386;9.980;2024-01-11T12:45:56;40.73;;;13.83;;
5428;SDS011;2737;52.386;9.980;2024-01-11T12:48:23;49.80;;;16.50;;
5428;SDS011;2737;52.386;9.980;2024-01-11T12:50:50;43.87;;;18.13;;
5428;SDS011;2737;52.386;9.980;2024-01-11T12:53:19;54.50;;;17.57;;
5428;SDS011;2737;52.386;9.980;2024-01-11T12:55:46;48.13;;;15.13;;
5428;SDS011;2737;52.386;9.980;2024-01-11T12:58:18;61.43;;;17.73;;
5428;SDS011;2737;52.386;9.980;2024-01-11T13:00:47;70.70;;;18.80;;
5428;SDS011;2737;52.386;9.980;2024-01-11T13:03:14;60.53;;;16.60;;
5428;SDS011;2737;52.386;9.980;2024-01-11T13:05:41;48.47;;;15.50;;
5428;SDS011;2737;52.386;9.980;2024-01-11T13:08:08;60.23;;;18.23;;
5428;SDS011;2737;52.386;9.980;2024-01-11T13:10:36;56.80;;;16.27;;
5428;SDS011;2737;52.386;9.980;2024-01-11T13:13:03;51.60;;;17.17;;
5428;SDS011;2737;52.386;9.980;2024-01-11T13:15:32;47.67;;;17.27;;
5428;SDS011;2737;52.386;9.980;2024-01-11T13:18:00;45.10;;;16.27;;
5428;SDS011;2737;52.386;9.980;2024-01-11T13:20:27;49.30;;;16.20;;
5428;SDS011;2737;52.386;9.980;2024-01-11T13:25:40;49.57;;;17.87;;
5428;SDS011;2737;52.386;9.980;2024-01-11T13:28:07;55.77;;;15.33;;
5428;SDS011;2737;52.386;9.980;2024-01-11T13:30:37;57.43;;;16.27;;
5428;SDS011;2737;52.386;9.980;2024-01-11T13:33:05;59.70;;;16.70;;
5428;SDS011;2737;52.386;9.980;2024-01-11T13:35:33;46.90;;;14.17;;
5428;SDS011;2737;52.386;9.980;2024-01-11T13:38:00;47.40;;;15.20;;
5428;SDS011;2737;52.386;9.980;2024-01-11T13:40:27;49.80;;;15.20;;
5428;SDS011;2737;52.386;9.980;2024-01-11T13:42:54;41.27;;;15.10;;
5428;SDS011;2737;52.386;9.980;2024-01-11T13:45:24;48.60;;;15.07;;
5428;SDS011;2737;52.386;9.980;2024-01-11T13:47:54;39.97;;;14.87;;
5428;SDS011;2737;52.386;9.980;2024-01-11T13:50:21;50.53;;;15.30;;
5428;SDS011;2737;52.386;9.980;2024-01-11T13:52:49;39.73;;;14.07;;
5428;SDS011;2737;52.386;9.980;2024-01-11T13:55:16;36.90;;;14.50;;
5428;SDS011;2737;52.386;9.980;2024-01-11T13:57:44;43.23;;;14.80;;
5428;SDS011;2737;52.386;9.980;2024-01-11T14:00:12;48.67;;;14.47;;
5428;SDS011;2737;52.386;9.980;2024-01-11T14:02:39;41.43;;;14.90;;
5428;SDS011;2737;52.386;9.980;2024-01-11T14:05:08;42.57;;;14.00;;
5428;SDS011;2737;52.386;9.980;2024-01-11T14:07:39;35.70;;;14.50;;
5428;SDS011;2737;52.386;9.980;2024-01-11T14:10:07;47.60;;;14.53;;
5428;SDS011;2737;52.386;9.980;2024-01-11T14:12:35;50.83;;;15.10;;
5428;SDS011;2737;52.386;9.980;2024-01-11T14:15:02;41.53;;;13.90;;
5428;SDS011;2737;52.386;9.980;2024-01-11T14:17:31;50.77;;;14.40;;
5428;SDS011;2737;52.386;9.980;2024-01-11T14:19:59;38.47;;;14.50;;
5428;SDS011;2737;52.386;9.980;2024-01-11T14:22:29;36.33;;;13.43;;
5428;SDS011;2737;52.386;9.980;2024-01-11T14:24:56;44.47;;;14.70;;
5428;SDS011;2737;52.386;9.980;2024-01-11T14:27:23;40.47;;;14.50;;
5428;SDS011;2737;52.386;9.980;2024-01-11T14:29:50;39.20;;;14.43;;
5428;SDS011;2737;52.386;9.980;2024-01-11T14:32:17;58.07;;;17.20;;
5428;SDS011;2737;52.386;9.980;2024-01-11T14:34:44;53.83;;;16.77;;
5428;SDS011;2737;52.386;9.980;2024-01-11T14:37:11;47.70;;;14.10;;
5428;SDS011;2737;52.386;9.980;2024-01-11T14:39:41;45.60;;;14.57;;
5428;SDS011;2737;52.386;9.980;2024-01-11T14:42:08;44.10;;;15.50;;
5428;SDS011;2737;52.386;9.980;2024-01-11T14:44:35;43.63;;;15.03;;
5428;SDS011;2737;52.386;9.980;2024-01-11T14:47:02;43.00;;;16.10;;
5428;SDS011;2737;52.386;9.980;2024-01-11T14:49:30;48.57;;;15.80;;
5428;SDS011;2737;52.386;9.980;2024-01-11T14:51:57;43.10;;;16.40;;
5428;SDS011;2737;52.386;9.980;2024-01-11T14:54:24;47.70;;;14.60;;
5428;SDS011;2737;52.386;9.980;2024-01-11T14:56:54;55.13;;;17.70;;